Flight Track Log - Related Links

Times and Time Zones

All times are in EDT time to prevent confusion due to time zone crossing. See the JBU1580 flight status page for this flight to view local times or setup timezone preferences in your user account.

Time Position Orientation Groundspeed Altitude Reporting Facility
EDT Latitude Longitude Course Direction KTS MPH feet Rate Location/Type
Thu 01:22:38 PM 26.0739 -80.1783 340° North 160 184 1,000  Level Miami Center
Thu 01:23:27 PM 26.0772 -80.2178 275° West 166 191 2,300 1,440 Climbing Miami Center
Thu 01:23:28 PM 26.0794 -80.2131 62° Northeast 165 190 2,200 2,262 Descending Miami Center
Thu 01:24:28 PM 26.1228 -80.2328 338° Northwest 227 261 4,600 2,250 Climbing Miami Center
Thu 01:25:00 PM 26.5233 -80.0566 343° North  Level Estimated
Thu 01:25:28 PM 26.1822 -80.1953 30° Northeast 294 338 6,700  Level Miami Center
Thu 01:25:29 PM 26.1844 -80.1836 78° East 311 358 7,200 2,300 Climbing Miami Center
Thu 01:26:00 PM 26.6359 -80.0324 346° North  Level Estimated
Thu 01:26:28 PM 26.2053 -80.0939 75° East 365 420 9,000  Level Miami Center
Thu 01:27:00 PM 26.7486 -80.0082 340° North  Level Estimated
Thu 01:27:28 PM 26.2178 -79.9994 82° East 331 381 8,900  Level Miami Center
Thu 01:28:28 PM 26.2033 -79.8994 99° East 313 360 8,900  Level Miami Center
Thu 01:29:28 PM 26.1864 -79.8017 101° East 313 360 8,900 1,050 Level Miami Center
Thu 01:30:28 PM 26.2278 -79.7242 59° Northeast 282 325 11,000 1,900 Climbing Miami Center
Thu 01:31:28 PM 26.3064 -79.6586 37° Northeast 298 343 12,700 1,850 Climbing Miami Center
Thu 01:32:28 PM 26.3869 -79.5886 38° Northeast 345 397 14,700 2,150 Climbing Miami Center
Thu 01:33:28 PM 26.4697 -79.5211 36° Northeast 372 428 17,000 2,350 Climbing Miami Center
Thu 01:34:28 PM 26.5567 -79.4486 37° Northeast 377 434 19,400 2,200 Climbing Miami Center
Thu 01:35:28 PM 26.6414 -79.3808 36° Northeast 372 428 21,400 1,600 Climbing Miami Center
Thu 01:36:28 PM 26.7072 -79.3217 39° Northeast 372 428 22,600 1,500 Climbing Miami Center
Thu 01:37:28 PM 26.8253 -79.2544 27° Northeast 378 435 24,400 1,150 Climbing Miami Center
Thu 01:38:28 PM 26.9286 -79.2006 25° Northeast 390 449 24,900 800 Climbing Miami Center
Thu 01:39:28 PM 27.0358 -79.1419 26° Northeast 405 466 26,000 1,050 Climbing Miami Center
Thu 01:40:28 PM 27.1494 -79.0883 23° Northeast 428 493 27,000 1,000 Climbing Miami Center
Thu 01:41:28 PM 27.2653 -79.0250 26° Northeast 446 513 28,000 1,100 Climbing Miami Center
Thu 01:42:28 PM 27.3811 -78.9733 22° Northeast 446 513 29,200 1,200 Climbing Miami Center
Thu 01:43:28 PM 27.4897 -78.9614 North 432 497 30,400 1,000 Climbing Miami Center
Thu 01:44:28 PM 27.6111 -78.9425 North 445 512 31,200 1,050 Climbing Miami Center
Thu 01:45:28 PM 27.7492 -78.9192 North 444 511 32,500 1,150 Climbing Miami Center
Thu 01:46:28 PM 27.8706 -78.9050 North 444 511 33,500 900 Climbing Miami Center
Thu 01:47:28 PM 27.9836 -78.8883 North 444 511 34,300 750 Climbing Miami Center
Thu 01:48:28 PM 28.1028 -78.8692 North 444 511 35,000 800 Climbing Miami Center
Thu 01:49:28 PM 28.2219 -78.8525 North 438 504 35,900 800 Climbing Miami Center
Thu 01:50:28 PM 28.3372 -78.8331 North 433 498 36,600 550 Climbing Miami Center
Thu 01:51:28 PM 28.4606 -78.8164 North 433 498 37,000 200 Climbing Miami Center
Thu 01:52:28 PM 28.5881 -78.7975 North 439 505 37,000  Level Miami Center
Thu 01:53:28 PM 28.7089 -78.8089 355° North 439 505 37,000  Level Miami Center
Thu 01:54:28 PM 28.8361 -78.8303 352° North 445 512 37,000  Level Miami Center
Thu 01:55:28 PM 28.9608 -78.8536 351° North 450 518 37,000  Level Miami Center
Thu 01:56:28 PM 29.0794 -78.8725 352° North 450 518 37,000  Level Miami Center
Thu 01:57:28 PM 29.2086 -78.8964 351° North 449 517 37,000  Level Miami Center
Thu 01:58:28 PM 29.3294 -78.9103 354° North 443 510 37,000  Level Miami Center
Thu 01:59:28 PM 29.4544 -78.9200 356° North 450 518 37,000  Level Miami Center
Thu 02:01:52 PM 29.7506 -78.9506 355° North 444 511 37,000  Level Jacksonville Center
Thu 02:02:52 PM 29.8694 -78.9456 North 424 488 37,000  Level Jacksonville Center
Thu 02:03:52 PM 29.9853 -78.9169 12° North 438 504 37,000  Level Jacksonville Center
Thu 02:04:52 PM 30.1161 -78.8947 North 451 519 37,000  Level Jacksonville Center
Thu 02:05:52 PM 30.2406 -78.8703 10° North 451 519 37,000  Level Jacksonville Center
Thu 02:06:52 PM 30.3608 -78.8436 11° North 445 512 37,000  Level Jacksonville Center
Thu 02:07:52 PM 30.4894 -78.8142 11° North 450 518 37,000  Level Jacksonville Center
Thu 02:08:52 PM 30.6158 -78.7844 11° North 450 518 37,000  Level Jacksonville Center
Thu 02:09:52 PM 30.7336 -78.7553 12° North 444 511 37,000  Level Jacksonville Center
Thu 02:10:52 PM 30.8622 -78.7278 10° North 456 525 37,000  Level Jacksonville Center
Thu 02:11:52 PM 30.9844 -78.6983 12° North 456 525 37,000  Level Jacksonville Center
Thu 02:12:52 PM 31.1233 -78.6653 12° North 456 525 37,000  Level Jacksonville Center
Thu 02:13:52 PM 31.2456 -78.6381 11° North 451 519 37,000  Level Jacksonville Center
Thu 02:14:52 PM 31.3717 -78.6031 13° North 450 518 37,000  Level Jacksonville Center
Thu 02:15:52 PM 31.4961 -78.5778 10° North 450 518 37,000  Level Jacksonville Center
Thu 02:16:52 PM 31.6203 -78.5478 12° North 448 516 37,000  Level Jacksonville Center
Thu 02:17:52 PM 31.7444 -78.5197 11° North 448 516 37,000  Level Jacksonville Center
Thu 02:18:52 PM 31.8708 -78.4869 12° North 453 521 37,000  Level Jacksonville Center
Thu 02:19:52 PM 31.9950 -78.4589 11° North 453 521 37,000  Level Jacksonville Center
Thu 02:20:52 PM 32.1192 -78.4286 12° North 447 514 37,000  Level Jacksonville Center
Thu 02:21:52 PM 32.2392 -78.3981 12° North 447 514 37,000  Level Jacksonville Center
Thu 02:22:52 PM 32.3633 -78.3650 13° North 447 514 37,000  Level Jacksonville Center
Thu 02:23:52 PM 32.4894 -78.3339 12° North 447 514 37,000  Level Jacksonville Center
Thu 02:24:52 PM 32.6117 -78.3056 11° North 447 514 37,000  Level Jacksonville Center
Thu 02:25:52 PM 32.7358 -78.2772 11° North 447 514 37,000  Level Jacksonville Center
Thu 02:26:52 PM 32.8575 -78.2436 13° North 447 514 37,000  Level Jacksonville Center
Thu 02:27:52 PM 32.9817 -78.2150 11° North 447 514 37,000  Level Jacksonville Center
Thu 02:30:17 PM 33.2622 -78.1469 11° North 448 516 37,000  Level Washington Center
Thu 02:31:15 PM 33.3881 -78.1158 12° North 448 516 37,000  Level Washington Center
Thu 02:32:15 PM 33.5139 -78.0847 12° North 448 516 37,000  Level Washington Center
Thu 02:33:16 PM 33.6397 -78.0536 12° North 448 516 37,000  Level Washington Center
Thu 02:34:16 PM 33.7633 -78.0247 11° North 448 516 37,000  Level Washington Center
Thu 02:35:16 PM 33.8911 -77.9936 11° North 454 522 37,000  Level Washington Center
Thu 02:36:17 PM 34.0339 -77.9525 13° North 460 529 37,000  Level Washington Center
Thu 02:37:15 PM 34.1594 -77.9236 11° North 460 529 37,000  Level Washington Center
Thu 02:38:16 PM 34.2853 -77.8919 12° North 460 529 37,000  Level Washington Center
Thu 02:39:16 PM 34.4150 -77.8703 North 466 536 37,000  Level Washington Center
Thu 02:40:17 PM 34.5406 -77.8586 North 461 531 37,000  Level Washington Center
Thu 02:41:17 PM 34.6661 -77.8444 North 461 531 37,000 -250 Level Washington Center
Thu 02:42:17 PM 34.7914 -77.8303 North 461 531 36,500 -763 Descending Washington Center
Thu 02:43:15 PM 34.9147 -77.8158 North 454 522 35,500 -756 Descending Washington Center
Thu 02:44:16 PM 35.0278 -77.8039 North 454 522 35,000 -246 Descending Washington Center
Thu 02:45:17 PM 35.1511 -77.7919 North 449 517 35,000  Level Washington Center
Thu 02:46:17 PM 35.2767 -77.7750 North 444 511 35,000  Level Washington Center
Thu 02:47:14 PM 35.4019 -77.7631 North 444 511 35,000  Level Washington Center
Thu 02:48:16 PM 35.5253 -77.7486 North 444 511 35,000 -390 Level Washington Center
Thu 02:49:17 PM 35.6508 -77.7367 North 444 511 34,200 -942 Descending Washington Center
Thu 02:50:17 PM 35.7719 -77.7244 North 444 511 33,100 -610 Descending Washington Center
Thu 02:51:15 PM 35.8953 -77.7125 North 444 511 33,000 -50 Descending Washington Center
Thu 02:52:16 PM 36.0144 -77.6950 North 444 511 33,000 -344 Level Washington Center
Thu 02:53:17 PM 36.1361 -77.6675 10° North 444 511 32,300 -1,240 Descending Washington Center
Thu 02:54:17 PM 36.2575 -77.6372 11° North 444 511 30,500 -1,831 Descending Washington Center
Thu 02:55:15 PM 36.3728 -77.6067 12° North 438 504 28,700 -1,780 Descending Washington Center
Thu 02:56:15 PM 36.4964 -77.5764 11° North 416 479 27,000 -843 Descending Washington Center
Thu 02:57:16 PM 36.6117 -77.5481 11° North 410 472 27,000 -295 Level Washington Center
Thu 02:58:17 PM 36.7247 -77.5172 12° North 410 472 26,400 -893 Descending Washington Center
Thu 02:59:17 PM 36.8419 -77.4892 11° North 415 478 25,200 -1,100 Descending Washington Center
Thu 03:00:17 PM 36.9531 -77.4606 12° North 410 472 24,200 -610 Descending Washington Center
Thu 03:01:15 PM 37.0642 -77.4319 12° North 410 472 24,000 -202 Descending Washington Center
Thu 03:02:16 PM 37.1750 -77.4033 12° North 410 472 23,800 -545 Descending Washington Center
Thu 03:03:16 PM 37.2861 -77.3772 11° North 410 472 22,900 -857 Descending Washington Center
Thu 03:04:15 PM 37.3969 -77.3486 12° North 410 472 22,100 -450 Descending Washington Center
Thu 03:05:16 PM 37.4850 -77.3244 12° North 410 472 22,000 -298 Descending Washington Center
Thu 03:06:16 PM 37.6064 -77.2983 10° North 405 466 21,500 -1,240 Descending Washington Center
Thu 03:07:17 PM 37.7150 -77.2772 North 405 466 19,500 -2,033 Descending Washington Center
Thu 03:08:17 PM 37.8197 -77.2533 10° North 393 452 17,400 -2,085 Descending Washington Center
Thu 03:09:15 PM 37.9200 -77.2317 10° North 379 436 15,400 -2,034 Descending Washington Center
Thu 03:10:15 PM 38.0206 -77.2128 North 367 422 13,400 -1,934 Descending Washington Center
Thu 03:11:16 PM 38.1186 -77.1939 North 362 417 11,500 -1,623 Descending Washington Center
Thu 03:12:17 PM 38.2192 -77.1642 13° North 344 396 10,100 -706 Descending Washington Center
Thu 03:13:15 PM 38.2944 -77.1553 North 307 353 10,100 -655 Level Washington Center
Thu 03:14:16 PM 38.3594 -77.1194 23° Northeast 280 322 8,800 -1,377 Descending Washington Center
Thu 03:15:17 PM 38.4269 -77.0706 30° Northeast 269 310 7,300 -1,261 Descending Washington Center
Thu 03:16:15 PM 38.4858 -77.0267 30° Northeast 258 297 6,300 -915 Descending Washington Center
Thu 03:17:15 PM 38.5444 -77.0092 13° North 229 264 5,500 -843 Descending Washington Center
Thu 03:18:16 PM 38.6028 -77.0156 355° North 212 244 4,600 -1,226 Descending Washington Center
Thu 03:18:48 PM 38.6333 -77.0167 358° North 196 226 3,600 -1,290 Descending Potomac TRACON
Thu 03:19:49 PM 38.6833 -77.0167 360° North 196 226 2,600 -835 Descending Potomac TRACON
Thu 03:20:43 PM 38.7333 -77.0333 345° North 185 213 2,000 -789 Descending Potomac TRACON
Thu 03:21:43 PM 38.7833 -77.0333 360° North 161 185 1,100 -800 Descending Potomac TRACON
Thu 03:22:43 PM 38.8167 -77.0333 360° North 131 151 400 -700 Descending Potomac TRACON

Login

Don't have an account? Register now (free) for customized features, flight alerts, and more!